• Join FlightAware (Why Join?)
  • Login
  • US Flag 
05:02AM EDT


 

Airport Tracker/Info


-or-


 

Live Flight TrackerFlight Track Log ✈ PDT4226 ✈ 28-Jan-2014 ✈ KBGM - KPHL

Flight Track Log - Related Links

Times and Time Zones

All times are in EST time to prevent confusion due to time zone crossing. See the PDT4226 flight status page for this flight to view local times or setup timezone preferences in your user account.

Time Position Orientation Groundspeed Altitude Reporting Facility
EST Latitude Longitude Course Direction KTS MPH feet Rate Location/Type
01:42PM 42.0140 -75.9160 180° South  Level Estimated
01:43PM 41.9654 -75.9002 180° South  Level Estimated
01:44PM 41.9157 -75.9078 187° South  Level FlightAware Approximate
01:45PM 41.8660 -75.9155 187° South  Level FlightAware Approximate
01:46PM 41.8163 -75.9231 187° South  Level FlightAware Approximate
01:47PM 41.7666 -75.9308 187° South  Level FlightAware Approximate
01:48PM 41.7184 -75.9127 154° Southeast  Level Estimated
01:49PM 41.6702 -75.8947 160° South  Level Estimated
01:50PM 41.6220 -75.8767 159° South  Level Estimated
01:51PM 41.5768 -75.8482 155° Southeast  Level FlightAware Approximate
01:52PM 41.5315 -75.8198 155° Southeast  Level FlightAware Approximate
01:53PM 41.4832 -75.8025 153° Southeast  Level Estimated
01:54PM 41.4349 -75.7852 161° South  Level Estimated
01:55PM 41.3893 -75.7576 156° South  Level FlightAware Approximate
01:56PM 41.3438 -75.7300 156° South  Level FlightAware Approximate
01:57PM 41.2983 -75.7024 156° South  Level FlightAware Approximate
01:58PM 41.2497 -75.6864 162° South  Level Estimated
01:59PM 41.2027 -75.6637 160° South  Level FlightAware Approximate
02:00PM 41.1556 -75.6412 160° South  Level FlightAware Approximate
02:01PM 41.1086 -75.6186 160° South  Level FlightAware Approximate
02:02PM 41.0615 -75.5961 160° South  Level FlightAware Approximate
02:03PM 41.0145 -75.5736 160° South  Level FlightAware Approximate
02:04PM 40.9656 -75.5591 163° South  Level Estimated
02:05PM 40.9182 -75.5383 162° South  Level FlightAware Approximate
02:06PM 40.8707 -75.5174 162° South  Level FlightAware Approximate
02:06PM 40.5667 -75.5667 187° South 245 282 6,500  Level Philadelphia TRACON
02:07PM 40.8098 -75.4907 162° South  Level FlightAware Approximate
02:07PM 40.5500 -75.5667 180° South 246 283 6,200  Level Philadelphia TRACON
02:08PM 40.7490 -75.4641 162° South  Level FlightAware Approximate
02:08PM 40.4833 -75.5500 169° South 250 288 5,400  Level Philadelphia TRACON
02:09PM 40.6860 -75.4479 190° South  Level Estimated
02:09PM 40.4167 -75.5000 150° Southeast 247 284 5,000  Level Philadelphia TRACON
02:10PM 40.6233 -75.4655 192° South  Level FlightAware Approximate
02:10PM 40.3667 -75.4667 153° Southeast 234 269 5,000  Level Philadelphia TRACON
02:11PM 40.5606 -75.4831 192° South  Level FlightAware Approximate
02:11PM 40.3167 -75.4167 143° Southeast 227 261 5,000  Level Philadelphia TRACON
02:12PM 40.4986 -75.4611 187° South  Level Estimated
02:12PM 40.2667 -75.3667 143° Southeast 228 262 5,000  Level Philadelphia TRACON
02:13PM 40.2167 -75.3167 143° Southeast 230 265 5,000 -420 Level Philadelphia TRACON
02:14PM 40.1500 -75.2833 159° South 238 274 4,200 -540 Descending Philadelphia TRACON
02:15PM 40.0833 -75.2500 159° South 245 282 4,000 -120 Descending Philadelphia TRACON
02:16PM 40.0333 -75.2167 153° Southeast 232 267 4,000  Level Philadelphia TRACON
02:17PM 39.9667 -75.1833 159° South 231 266 4,000  Level Philadelphia TRACON
02:18PM 39.9000 -75.1500 159° South 203 234 4,000  Level Philadelphia TRACON
02:19PM 39.8500 -75.1333 166° South 201 231 4,000 -420 Level Philadelphia TRACON
02:20PM 39.8000 -75.1000 153° Southeast 201 231 3,300 -1,020 Descending Philadelphia TRACON
02:21PM 39.7500 -75.0833 166° South 196 226 2,000 -660 Descending Philadelphia TRACON
02:22PM 39.7333 -75.1333 247° West 181 208 2,000 -60 Level Philadelphia TRACON
02:23PM 39.7667 -75.1833 311° West 186 214 1,900 -240 Descending Philadelphia TRACON
02:24PM 39.8167 -75.2000 346° North 173 199 1,600 -540 Descending Philadelphia TRACON
02:25PM 39.8500 -75.2167 339° North 105 121 900 -720 Descending Philadelphia TRACON